Time;durP1;ratioP1;P1;durP2;ratioP2;P2;SDS_P1;SDS_P2;PMS_P1;PMS_P2;Temp;Humidity;BMP_temperature;BMP_pressure;BME280_temperature;BME280_humidity;BME280_pressure;Samples;Min_cycle;Max_cycle;Signal;HPM_P1;HPM_P2
2021/12/11 00:01:00;;;;;;;8.82;5.28;;;4.30;99.90;;;;;;4170192;28;20026;-63
2021/12/11 00:03:13;;;;;;;9.40;5.63;;;4.30;99.90;;;;;;4171904;28;20140;-62
2021/12/11 00:05:16;;;;;;;9.60;5.72;;;4.20;99.90;;;;;;4166197;28;20048;-63
2021/12/11 00:07:19;;;;;;;7.35;5.10;;;4.30;99.90;;;;;;4168553;28;20033;-63
2021/12/11 00:09:29;;;;;;;8.50;4.72;;;4.30;99.90;;;;;;4168289;28;20068;-63
2021/12/11 00:11:40;;;;;;;8.98;5.47;;;4.20;99.90;;;;;;4167450;28;20087;-63
2021/12/11 00:13:42;;;;;;;10.88;5.35;;;4.20;99.90;;;;;;4154499;28;20503;-63
2021/12/11 00:15:46;;;;;;;7.97;4.93;;;4.20;99.90;;;;;;4173150;28;20037;-63
2021/12/11 00:17:47;;;;;;;9.70;5.35;;;4.20;99.90;;;;;;4170924;28;20033;-63
2021/12/11 00:19:48;;;;;;;10.18;5.82;;;4.10;99.90;;;;;;4170769;28;20040;-63
2021/12/11 00:21:49;;;;;;;8.68;5.22;;;4.20;99.90;;;;;;4160165;28;20111;-62
2021/12/11 00:24:08;;;;;;;6.55;4.90;;;4.10;99.90;;;;;;4168318;28;20156;-62
2021/12/11 00:26:11;;;;;;;10.00;5.60;;;4.10;99.90;;;;;;4167472;28;20033;-63
2021/12/11 00:28:12;;;;;;;7.85;5.18;;;4.10;99.90;;;;;;4169160;28;20472;-62
2021/12/11 00:30:27;;;;;;;7.85;5.05;;;4.10;99.90;;;;;;4170462;28;20037;-63
2021/12/11 00:32:31;;;;;;;10.13;5.47;;;4.10;99.90;;;;;;4166537;28;20033;-63
2021/12/11 00:34:32;;;;;;;7.25;5.20;;;4.10;99.90;;;;;;4167871;28;20159;-63
2021/12/11 00:36:33;;;;;;;9.57;5.67;;;4.10;99.90;;;;;;4167274;28;20060;-63
2021/12/11 00:38:34;;;;;;;7.80;5.22;;;4.00;99.90;;;;;;4164680;28;20037;-63
2021/12/11 00:40:37;;;;;;;10.10;5.57;;;4.00;99.90;;;;;;4172997;28;20451;-62
2021/12/11 00:42:39;;;;;;;8.00;5.03;;;4.00;99.90;;;;;;4166222;28;20057;-63
2021/12/11 00:44:49;;;;;;;11.68;5.03;;;4.00;99.90;;;;;;4168345;28;20090;-62
2021/12/11 00:46:50;;;;;;;8.38;4.95;;;4.00;99.90;;;;;;4167282;28;20103;-63
2021/12/11 00:48:50;;;;;;;10.25;5.55;;;4.00;99.90;;;;;;4169463;28;20378;-62
2021/12/11 00:51:19;;;;;;;10.05;5.68;;;3.90;99.90;;;;;;4171478;28;20022;-63
2021/12/11 00:53:25;;;;;;;9.55;4.68;;;3.90;99.90;;;;;;4161500;28;20052;-63
2021/12/11 00:55:30;;;;;;;8.63;5.10;;;3.90;99.90;;;;;;4167262;28;20487;-63
2021/12/11 00:57:31;;;;;;;8.65;5.18;;;3.90;99.90;;;;;;4167777;28;20029;-62
2021/12/11 00:59:32;;;;;;;7.93;5.07;;;3.90;99.90;;;;;;4167300;28;20380;-62
2021/12/11 01:01:37;;;;;;;7.50;4.85;;;3.90;99.90;;;;;;4167398;28;20464;-63
2021/12/11 01:03:49;;;;;;;8.38;5.38;;;3.90;99.90;;;;;;4174870;28;20036;-62
2021/12/11 01:05:51;;;;;;;;;;;3.80;99.90;;;;;;4169802;28;20116;-63
2021/12/11 01:07:53;;;;;;;10.48;5.22;;;3.80;99.90;;;;;;4162262;28;19916;-62
2021/12/11 01:10:22;;;;;;;8.50;4.93;;;3.80;99.90;;;;;;4173887;28;20037;-62
2021/12/11 01:12:39;;;;;;;7.53;4.85;;;3.80;99.90;;;;;;4156888;28;20045;-63
2021/12/11 01:14:51;;;;;;;7.35;4.90;;;3.80;99.90;;;;;;4166545;28;20028;-63
2021/12/11 01:16:57;;;;;;;8.70;5.20;;;3.80;99.90;;;;;;4167615;28;20528;-63
2021/12/11 01:19:01;;;;;;;9.73;5.97;;;3.70;99.90;;;;;;4167721;28;20567;-62
2021/12/11 01:21:28;;;;;;;9.48;5.95;;;3.70;99.90;;;;;;4180982;28;20032;-63
2021/12/11 01:23:47;;;;;;;8.77;5.35;;;3.70;99.90;;;;;;4152338;28;20030;-62
2021/12/11 01:25:47;;;;;;;7.28;4.95;;;3.70;99.90;;;;;;4162797;28;20107;-62
2021/12/11 01:27:53;;;;;;;9.93;5.43;;;3.70;99.90;;;;;;4167095;28;20091;-63
2021/12/11 01:29:58;;;;;;;8.63;5.22;;;3.70;99.90;;;;;;4167274;28;20388;-62
2021/12/11 01:31:59;;;;;;;11.50;5.47;;;3.70;99.90;;;;;;4162366;28;20447;-63
2021/12/11 01:34:00;;;;;;;11.95;5.68;;;3.70;99.90;;;;;;4167482;28;20037;-62
2021/12/11 01:36:02;;;;;;;9.80;5.03;;;3.70;99.90;;;;;;4172167;28;20095;-63
2021/12/11 01:38:10;;;;;;;9.33;5.30;;;3.70;99.90;;;;;;4162207;28;20059;-62
2021/12/11 01:40:13;;;;;;;8.27;4.90;;;3.70;99.90;;;;;;4166506;28;20037;-65
2021/12/11 01:42:19;;;;;;;11.05;6.07;;;3.60;99.90;;;;;;4167193;28;20037;-63
2021/12/11 01:44:26;;;;;;;8.68;5.28;;;3.60;99.90;;;;;;4157427;28;20041;-63
2021/12/11 01:46:28;;;;;;;8.10;5.50;;;3.60;99.90;;;;;;4162046;28;20040;-62
2021/12/11 01:48:36;;;;;;;10.00;5.37;;;3.60;99.90;;;;;;4164778;28;20053;-62
2021/12/11 01:50:41;;;;;;;9.88;5.82;;;3.60;99.90;;;;;;4166904;28;20485;-62
2021/12/11 01:52:59;;;;;;;10.40;6.68;;;3.60;99.90;;;;;;4167389;28;20053;-62
2021/12/11 01:55:03;;;;;;;9.95;5.53;;;3.60;99.90;;;;;;4154409;28;20026;-62
2021/12/11 01:57:22;;;;;;;8.38;6.32;;;3.60;99.90;;;;;;4166621;28;20239;-62
2021/12/11 01:59:33;;;;;;;10.20;5.72;;;3.60;99.90;;;;;;4166713;28;20163;-62
2021/12/11 02:01:46;;;;;;;11.43;5.95;;;3.60;99.90;;;;;;4167556;28;20464;-63
2021/12/11 02:03:50;;;;;;;10.88;6.28;;;3.60;99.90;;;;;;4165982;28;20051;-62
2021/12/11 02:05:51;;;;;;;10.02;5.55;;;3.60;99.90;;;;;;4162196;28;20041;-63
2021/12/11 02:07:56;;;;;;;7.75;5.43;;;3.60;99.90;;;;;;4170482;28;20056;-62
2021/12/11 02:10:00;;;;;;;10.07;6.45;;;3.60;99.90;;;;;;4167086;28;20033;-62
2021/12/11 02:12:34;;;;;;;9.27;6.15;;;3.60;99.90;;;;;;4169665;28;20468;-63
2021/12/11 02:14:41;;;;;;;10.73;6.10;;;3.60;99.90;;;;;;4168775;28;20487;-63
2021/12/11 02:16:46;;;;;;;10.48;5.90;;;3.60;99.90;;;;;;4159863;28;20469;-63
2021/12/11 02:18:51;;;;;;;7.95;5.93;;;3.50;99.90;;;;;;4171644;28;20029;-62
2021/12/11 02:21:16;;;;;;;10.05;6.25;;;3.60;99.90;;;;;;4164714;28;20387;-63
2021/12/11 02:23:17;;;;;;;9.68;6.30;;;3.50;99.90;;;;;;4169190;28;20025;-62
2021/12/11 02:25:26;;;;;;;7.28;5.32;;;3.50;99.90;;;;;;4169977;28;20040;-63
2021/12/11 02:27:33;;;;;;;9.65;6.15;;;3.50;99.90;;;;;;4174768;28;20100;-62
2021/12/11 02:29:41;;;;;;;11.07;6.07;;;3.50;99.90;;;;;;4166507;28;20073;-62
2021/12/11 02:31:54;;;;;;;9.85;6.28;;;3.50;99.90;;;;;;4170012;28;20459;-62
2021/12/11 02:34:15;;;;;;;10.05;6.35;;;3.50;99.90;;;;;;4156632;28;20038;-62
2021/12/11 02:36:32;;;;;;;9.25;6.07;;;3.50;99.90;;;;;;4159919;28;20040;-63
2021/12/11 02:38:53;;;;;;;9.07;5.70;;;3.50;99.90;;;;;;4166729;28;20391;-63
2021/12/11 02:41:05;;;;;;;7.70;5.32;;;3.50;99.90;;;;;;4168219;28;20467;-63
2021/12/11 02:43:11;;;;;;;11.32;6.47;;;3.50;99.90;;;;;;4166519;28;20038;-63
2021/12/11 02:45:18;;;;;;;11.30;5.88;;;3.50;99.90;;;;;;4165130;28;20040;-63
2021/12/11 02:47:31;;;;;;;10.23;6.15;;;3.50;99.90;;;;;;4166338;28;20445;-62
2021/12/11 02:49:37;;;;;;;9.73;5.90;;;3.50;99.90;;;;;;4166190;28;20438;-62
2021/12/11 02:51:44;;;;;;;7.75;5.63;;;3.40;99.90;;;;;;4165697;28;20029;-62
2021/12/11 02:53:54;;;;;;;9.35;5.70;;;3.40;99.90;;;;;;4173109;28;20492;-62
2021/12/11 02:56:07;;;;;;;8.00;5.35;;;3.40;99.90;;;;;;4162993;28;20032;-63
2021/12/11 02:58:29;;;;;;;10.98;6.20;;;3.40;99.90;;;;;;4163306;28;20384;-62
2021/12/11 03:00:41;;;;;;;7.70;4.80;;;3.40;99.90;;;;;;4151982;28;20045;-63
2021/12/11 03:02:48;;;;;;;10.73;5.60;;;3.40;99.90;;;;;;4166302;28;20567;-62
2021/12/11 03:04:53;;;;;;;9.73;5.30;;;3.40;99.90;;;;;;4166027;28;20480;-62
2021/12/11 03:06:55;;;;;;;9.15;5.93;;;3.40;99.90;;;;;;4166579;28;20396;-62
2021/12/11 03:08:59;;;;;;;12.38;6.40;;;3.40;99.90;;;;;;4165945;28;20080;-63
2021/12/11 03:11:08;;;;;;;9.15;5.95;;;3.40;99.90;;;;;;4166349;28;20045;-63
2021/12/11 03:13:09;;;;;;;9.38;6.00;;;3.40;99.90;;;;;;4168387;28;20034;-62
2021/12/11 03:15:12;;;;;;;8.75;5.95;;;3.40;99.90;;;;;;4170383;28;20079;-63
2021/12/11 03:17:15;;;;;;;10.65;6.72;;;3.40;99.90;;;;;;4164396;28;20041;-63
2021/12/11 03:19:17;;;;;;;;;;;3.40;99.90;;;;;;4163922;28;20111;-62
2021/12/11 03:21:18;;;;;;;14.18;6.82;;;3.40;99.90;;;;;;4168828;28;19916;-62
2021/12/11 03:23:19;;;;;;;10.80;6.20;;;3.40;99.90;;;;;;4168210;28;20034;-62
2021/12/11 03:25:25;;;;;;;11.05;5.85;;;3.40;99.90;;;;;;4165493;28;20034;-63
2021/12/11 03:27:26;;;;;;;11.82;6.70;;;3.40;99.90;;;;;;4166548;28;20036;-62
2021/12/11 03:29:27;;;;;;;12.77;6.75;;;3.40;99.90;;;;;;4166097;28;20044;-62
2021/12/11 03:31:28;;;;;;;10.27;6.43;;;3.40;99.90;;;;;;4165612;28;20109;-63
2021/12/11 03:33:44;;;;;;;16.45;7.18;;;3.40;99.90;;;;;;4166042;28;20034;-62
2021/12/11 03:35:46;;;;;;;9.75;6.30;;;3.40;99.90;;;;;;4162426;28;20032;-62
2021/12/11 03:37:46;;;;;;;11.75;6.90;;;3.40;99.90;;;;;;4168117;28;20029;-63
2021/12/11 03:39:50;;;;;;;12.13;6.38;;;3.50;99.90;;;;;;4161110;28;20037;-62
2021/12/11 03:41:53;;;;;;;9.68;6.32;;;3.40;99.90;;;;;;4165623;28;20465;-62
2021/12/11 03:43:54;;;;;;;9.70;6.43;;;3.40;99.90;;;;;;4166341;28;20368;-63
2021/12/11 03:45:58;;;;;;;11.43;6.95;;;3.40;99.90;;;;;;4170171;28;20109;-62
2021/12/11 03:48:10;;;;;;;12.43;7.50;;;3.40;99.90;;;;;;4160089;28;20041;-63
2021/12/11 03:50:13;;;;;;;15.43;8.75;;;3.40;99.90;;;;;;4164861;28;20046;-63
2021/12/11 03:52:14;;;;;;;;;;;3.40;99.90;;;;;;4166639;28;20028;-62
2021/12/11 03:54:20;;;;;;;15.55;9.18;;;3.40;99.90;;;;;;4150792;28;19909;-63
2021/12/11 03:56:20;;;;;;;18.63;10.02;;;3.40;99.90;;;;;;4164198;28;20379;-63
2021/12/11 03:58:22;;;;;;;15.98;9.38;;;3.30;99.90;;;;;;4168690;28;20061;-63
2021/12/11 04:00:25;;;;;;;15.02;9.10;;;3.40;99.90;;;;;;4174525;28;20037;-63
2021/12/11 04:02:32;;;;;;;18.38;9.32;;;3.40;99.90;;;;;;4162005;28;20543;-62
2021/12/11 04:04:40;;;;;;;17.63;9.18;;;3.40;99.90;;;;;;4172447;28;20034;-62
2021/12/11 04:06:41;;;;;;;17.90;10.25;;;3.40;99.90;;;;;;4168220;28;20088;-62
2021/12/11 04:08:43;;;;;;;17.95;9.50;;;3.40;99.90;;;;;;4168289;28;20126;-62
2021/12/11 04:10:45;;;;;;;19.77;9.98;;;3.40;99.90;;;;;;4170657;28;20029;-63
2021/12/11 04:12:48;;;;;;;21.00;9.40;;;3.40;99.90;;;;;;4166932;28;20041;-62
2021/12/11 04:14:52;;;;;;;17.05;10.02;;;3.40;99.90;;;;;;4164525;28;20040;-62
2021/12/11 04:16:53;;;;;;;17.40;10.48;;;3.40;99.90;;;;;;4168640;28;20461;-62
2021/12/11 04:18:54;;;;;;;14.80;9.23;;;3.30;99.90;;;;;;4171604;28;20116;-62
2021/12/11 04:20:54;;;;;;;14.02;9.30;;;3.30;99.90;;;;;;4160140;28;20042;-62
2021/12/11 04:22:55;;;;;;;13.52;9.13;;;3.30;99.90;;;;;;4160587;28;20427;-62
2021/12/11 04:24:56;;;;;;;16.33;9.88;;;3.30;99.90;;;;;;4153055;28;20137;-62
2021/12/11 04:26:59;;;;;;;14.52;9.75;;;3.30;99.90;;;;;;4171722;28;20029;-63
2021/12/11 04:29:00;;;;;;;15.07;9.57;;;3.30;99.90;;;;;;4153437;28;20041;-63
2021/12/11 04:31:05;;;;;;;12.82;8.98;;;3.30;99.90;;;;;;4174767;28;20099;-62
2021/12/11 04:33:06;;;;;;;14.30;9.13;;;3.30;99.90;;;;;;4165875;28;20040;-63
2021/12/11 04:35:09;;;;;;;13.45;9.05;;;3.30;99.90;;;;;;4169702;28;20458;-65
2021/12/11 04:37:18;;;;;;;15.43;9.50;;;3.30;99.90;;;;;;4161748;28;20084;-62
2021/12/11 04:39:21;;;;;;;14.30;9.13;;;3.30;99.90;;;;;;4171402;28;20037;-62
2021/12/11 04:41:29;;;;;;;13.95;9.10;;;3.20;99.90;;;;;;4170485;28;20030;-62
2021/12/11 04:43:30;;;;;;;12.52;8.85;;;3.20;99.90;;;;;;4168099;28;20044;-62
2021/12/11 04:45:43;;;;;;;11.85;8.48;;;3.10;99.90;;;;;;4170167;28;20480;-63
2021/12/11 04:47:51;;;;;;;12.80;9.18;;;3.10;99.90;;;;;;4165178;28;20115;-62
2021/12/11 04:49:58;;;;;;;14.10;9.30;;;3.10;99.90;;;;;;4168105;28;20044;-62
2021/12/11 04:52:05;;;;;;;12.07;8.15;;;3.00;99.90;;;;;;4162912;28;20029;-62
2021/12/11 04:54:28;;;;;;;13.02;8.35;;;3.00;99.90;;;;;;4168110;28;20057;-62
2021/12/11 04:56:52;;;;;;;;;;;3.00;99.90;;;;;;4165667;28;20022;-62
2021/12/11 05:01:40;;;;;;;15.90;9.52;;;3.10;99.90;;;;;;4163549;28;20032;-62
2021/12/11 05:10:34;;;;;;;14.77;8.75;;;3.10;99.90;;;;;;4131599;28;20419;-63
2021/12/11 05:12:35;;;;;;;16.13;10.82;;;3.10;99.90;;;;;;4170344;28;20068;-62
2021/12/11 05:14:37;;;;;;;15.50;10.25;;;3.10;99.90;;;;;;4174900;28;20037;-62
2021/12/11 05:16:38;;;;;;;15.60;10.35;;;3.10;99.90;;;;;;4163661;28;20037;-62
2021/12/11 05:18:42;;;;;;;14.48;10.63;;;3.00;99.90;;;;;;4170461;28;20029;-62
2021/12/11 05:20:45;;;;;;;19.08;11.90;;;3.10;99.90;;;;;;4162089;28;20033;-63
2021/12/11 05:22:47;;;;;;;16.38;11.32;;;3.00;99.90;;;;;;4167435;28;20495;-62
2021/12/11 05:24:51;;;;;;;21.95;12.95;;;3.00;99.90;;;;;;4167443;28;20107;-63
2021/12/11 05:26:52;;;;;;;17.20;11.70;;;3.00;99.90;;;;;;4167983;28;20373;-62
2021/12/11 05:28:53;;;;;;;17.45;11.63;;;3.00;99.90;;;;;;4156803;28;20032;-62
2021/12/11 05:30:56;;;;;;;19.45;12.63;;;3.00;99.90;;;;;;4181618;28;20441;-63
2021/12/11 05:32:59;;;;;;;18.08;11.80;;;3.00;99.90;;;;;;4166872;28;20058;-62
2021/12/11 05:34:59;;;;;;;;;;;3.00;99.90;;;;;;4167621;28;20058;-62
2021/12/11 05:37:01;;;;;;;18.80;11.85;;;3.10;99.90;;;;;;4173166;28;19905;-62
2021/12/11 05:39:09;;;;;;;19.08;12.38;;;3.10;99.90;;;;;;4164577;28;20041;-62
2021/12/11 05:41:13;;;;;;;18.83;12.20;;;3.10;99.90;;;;;;4171857;28;20029;-62
2021/12/11 05:43:13;;;;;;;20.50;13.07;;;3.10;99.90;;;;;;4165980;28;20036;-62
2021/12/11 05:45:14;;;;;;;24.00;14.32;;;3.10;99.90;;;;;;4168307;28;20119;-63
2021/12/11 05:47:16;;;;;;;21.85;14.15;;;3.20;99.90;;;;;;4168058;28;20096;-62
2021/12/11 05:49:17;;;;;;;22.55;14.70;;;3.20;99.90;;;;;;4165436;28;20046;-62
2021/12/11 05:51:22;;;;;;;23.50;14.07;;;3.20;99.90;;;;;;4160246;28;20080;-62
2021/12/11 05:53:24;;;;;;;21.60;13.60;;;3.20;99.90;;;;;;4167476;28;20030;-62
2021/12/11 05:55:28;;;;;;;24.85;15.50;;;3.30;99.90;;;;;;4172573;28;20029;-62
2021/12/11 05:57:29;;;;;;;24.08;14.68;;;3.30;99.90;;;;;;4165653;28;20029;-62
2021/12/11 05:59:30;;;;;;;25.55;15.38;;;3.40;99.90;;;;;;4165440;28;20044;-62
2021/12/11 06:01:39;;;;;;;23.13;14.27;;;3.40;99.90;;;;;;4164689;28;20113;-63
2021/12/11 06:03:40;;;;;;;24.48;15.77;;;3.50;99.90;;;;;;4167313;28;20025;-62
2021/12/11 06:05:41;;;;;;;25.25;14.90;;;3.50;99.90;;;;;;4165935;28;20040;-63
2021/12/11 06:07:43;;;;;;;24.92;16.02;;;3.50;99.90;;;;;;4166676;28;20033;-62
2021/12/11 06:09:49;;;;;;;28.55;16.83;;;3.50;99.90;;;;;;4166831;28;20040;-62
2021/12/11 06:11:53;;;;;;;30.95;17.70;;;3.50;99.90;;;;;;4171430;28;20032;-62
2021/12/11 06:13:54;;;;;;;31.15;17.52;;;3.60;99.90;;;;;;4163321;28;20037;-62
2021/12/11 06:15:56;;;;;;;32.55;18.10;;;3.60;99.90;;;;;;4170465;28;20119;-62
2021/12/11 06:17:57;;;;;;;33.13;19.17;;;3.60;99.90;;;;;;4166838;28;20030;-62
2021/12/11 06:19:59;;;;;;;34.00;19.80;;;3.70;99.90;;;;;;4165837;28;20400;-62
2021/12/11 06:22:00;;;;;;;39.20;21.10;;;3.70;99.90;;;;;;4166085;28;20195;-62
2021/12/11 06:24:02;;;;;;;38.10;20.38;;;3.70;99.90;;;;;;4166666;28;20488;-62
2021/12/11 06:26:03;;;;;;;37.72;21.05;;;3.70;99.90;;;;;;4168601;28;20033;-62
2021/12/11 06:28:05;;;;;;;41.50;21.35;;;3.70;99.90;;;;;;4159953;28;20070;-62
2021/12/11 06:30:07;;;;;;;42.70;22.17;;;3.70;99.90;;;;;;4166235;28;20045;-65
2021/12/11 06:32:08;;;;;;;40.88;22.10;;;3.70;99.90;;;;;;4166273;28;20026;-63
2021/12/11 06:34:10;;;;;;;43.80;23.05;;;3.80;99.90;;;;;;4172775;28;20108;-62
2021/12/11 06:36:13;;;;;;;39.55;21.20;;;3.80;99.90;;;;;;4168760;28;20036;-62
2021/12/11 06:38:17;;;;;;;49.97;25.60;;;3.80;99.90;;;;;;4162609;28;20084;-62
2021/12/11 06:40:18;;;;;;;48.58;23.95;;;3.80;99.90;;;;;;4163264;28;20036;-63
2021/12/11 06:42:21;;;;;;;49.13;24.75;;;3.90;99.90;;;;;;4174630;28;20393;-62
2021/12/11 06:44:27;;;;;;;46.13;23.05;;;3.90;99.90;;;;;;4166698;28;20503;-63
2021/12/11 06:46:30;;;;;;;45.72;24.48;;;3.90;99.90;;;;;;4165550;28;20067;-62
2021/12/11 06:48:31;;;;;;;55.03;25.27;;;3.90;99.90;;;;;;4166678;28;20029;-63
2021/12/11 06:50:31;;;;;;;47.03;22.52;;;3.90;99.90;;;;;;4165485;28;20080;-62
2021/12/11 06:52:32;;;;;;;52.42;24.70;;;4.00;99.90;;;;;;4170843;28;20112;-62
2021/12/11 06:54:33;;;;;;;49.85;24.13;;;4.00;99.90;;;;;;4159774;28;20036;-62
2021/12/11 06:56:35;;;;;;;53.80;24.50;;;4.00;99.90;;;;;;4169923;28;20404;-62
2021/12/11 06:58:36;;;;;;;54.25;26.05;;;4.00;99.90;;;;;;4166581;28;20031;-62
2021/12/11 07:00:37;;;;;;;49.33;24.42;;;4.10;99.90;;;;;;4168359;28;20056;-62
2021/12/11 07:02:38;;;;;;;48.97;24.73;;;4.10;99.90;;;;;;4162963;28;20053;-63
2021/12/11 07:04:38;;;;;;;57.92;25.67;;;4.10;99.90;;;;;;4166175;28;20030;-63
2021/12/11 07:06:54;;;;;;;48.25;24.20;;;4.20;99.90;;;;;;4168340;28;20112;-63
2021/12/11 07:08:55;;;;;;;52.63;25.83;;;4.20;99.90;;;;;;4161880;28;20068;-63
2021/12/11 07:10:57;;;;;;;52.63;25.75;;;4.20;99.90;;;;;;4165736;28;20440;-62
2021/12/11 07:12:58;;;;;;;45.30;24.70;;;4.20;99.90;;;;;;4165729;28;20029;-63
2021/12/11 07:14:59;;;;;;;61.28;28.38;;;4.30;99.90;;;;;;4167217;28;20472;-63
2021/12/11 07:17:00;;;;;;;51.95;26.33;;;4.30;99.90;;;;;;4164439;28;20040;-63
2021/12/11 07:19:03;;;;;;;57.42;27.25;;;4.30;99.90;;;;;;4169596;28;20108;-63
2021/12/11 07:21:04;;;;;;;52.63;26.00;;;4.30;99.90;;;;;;4166684;28;20468;-63
2021/12/11 07:23:05;;;;;;;57.33;27.58;;;4.30;99.90;;;;;;4166230;28;20076;-63
2021/12/11 07:25:15;;;;;;;60.85;27.77;;;4.30;99.90;;;;;;4165702;28;20034;-63
2021/12/11 07:27:18;;;;;;;50.65;25.45;;;4.30;99.90;;;;;;4166646;28;20033;-63
2021/12/11 07:29:19;;;;;;;;;;;4.30;99.90;;;;;;4170892;28;20080;-63
2021/12/11 07:31:21;;;;;;;47.90;24.48;;;4.30;99.90;;;;;;4164301;28;20355;-63
2021/12/11 07:33:23;;;;;;;54.38;25.73;;;4.30;99.90;;;;;;4166535;28;20096;-63
2021/12/11 07:35:24;;;;;;;51.38;25.80;;;4.30;99.90;;;;;;4173422;28;20087;-63
2021/12/11 07:37:25;;;;;;;59.28;29.70;;;4.30;99.90;;;;;;4167159;28;20037;-63
2021/12/11 07:39:26;;;;;;;56.83;25.50;;;4.30;99.90;;;;;;4172477;28;20381;-63
2021/12/11 07:41:27;;;;;;;56.55;27.35;;;4.30;99.90;;;;;;4168452;28;20476;-63
2021/12/11 07:43:28;;;;;;;63.83;29.48;;;4.30;99.90;;;;;;4168725;28;20029;-63
2021/12/11 07:45:29;;;;;;;56.75;27.50;;;4.30;99.90;;;;;;4168192;28;20044;-63
2021/12/11 07:47:30;;;;;;;63.47;29.98;;;4.30;99.90;;;;;;4168149;28;20464;-63
2021/12/11 07:49:31;;;;;;;53.47;28.48;;;4.30;99.90;;;;;;4168648;28;20128;-63
2021/12/11 07:51:34;;;;;;;55.50;26.83;;;4.20;99.90;;;;;;4170899;28;20395;-63
2021/12/11 07:53:35;;;;;;;56.42;26.48;;;4.30;99.90;;;;;;4168450;28;20044;-63
2021/12/11 07:55:37;;;;;;;64.55;30.63;;;4.30;99.90;;;;;;4167991;28;20079;-63
2021/12/11 07:57:38;;;;;;;55.58;28.13;;;4.30;99.90;;;;;;4172278;28;20537;-63
2021/12/11 07:59:39;;;;;;;58.85;28.83;;;4.30;99.90;;;;;;4168737;28;20036;-63
2021/12/11 08:01:44;;;;;;;60.97;29.48;;;4.20;99.90;;;;;;4168124;28;20029;-63
2021/12/11 08:03:44;;;;;;;61.00;27.83;;;4.20;99.90;;;;;;4168933;28;20429;-63
2021/12/11 08:05:49;;;;;;;59.65;29.15;;;4.30;99.90;;;;;;4168092;28;20086;-63
2021/12/11 08:07:50;;;;;;;53.95;28.10;;;4.20;99.90;;;;;;4168236;28;20403;-63
2021/12/11 08:09:51;;;;;;;57.17;28.27;;;4.30;99.90;;;;;;4168699;28;20064;-63
2021/12/11 08:11:53;;;;;;;64.20;30.65;;;4.30;99.90;;;;;;4162910;28;20038;-63
2021/12/11 08:13:55;;;;;;;64.72;29.17;;;4.30;99.90;;;;;;4168813;28;20068;-63
2021/12/11 08:15:57;;;;;;;58.95;29.17;;;4.30;99.90;;;;;;4173691;28;20040;-63
2021/12/11 08:17:57;;;;;;;63.57;29.97;;;4.30;99.90;;;;;;4164024;28;20021;-63
2021/12/11 08:19:58;;;;;;;73.07;33.72;;;4.30;99.90;;;;;;4170331;28;20330;-63
2021/12/11 08:22:02;;;;;;;63.58;29.85;;;4.20;99.90;;;;;;4167832;28;20079;-63
2021/12/11 08:24:05;;;;;;;58.90;28.00;;;4.30;99.90;;;;;;4168323;28;20104;-63
2021/12/11 08:26:06;;;;;;;60.40;28.50;;;4.30;99.90;;;;;;4167655;28;20033;-63
2021/12/11 08:28:09;;;;;;;61.78;29.40;;;4.30;99.90;;;;;;4167965;28;20036;-63
2021/12/11 08:30:11;;;;;;;58.25;28.60;;;4.30;99.90;;;;;;4167264;28;20456;-64
2021/12/11 08:32:11;;;;;;;61.05;28.60;;;4.30;99.90;;;;;;4171738;28;20033;-63
2021/12/11 08:34:13;;;;;;;63.67;29.40;;;4.40;99.90;;;;;;4160484;28;20177;-63
2021/12/11 08:36:14;;;;;;;61.20;28.58;;;4.40;99.90;;;;;;4174506;28;20025;-63
2021/12/11 08:38:17;;;;;;;54.22;26.77;;;4.40;99.90;;;;;;4160360;28;20392;-63
2021/12/11 08:40:22;;;;;;;58.30;26.67;;;4.40;99.90;;;;;;4152859;28;20122;-63
2021/12/11 08:42:25;;;;;;;56.25;26.90;;;4.50;99.90;;;;;;4169973;28;20029;-63
2021/12/11 08:44:27;;;;;;;60.50;27.90;;;4.50;99.90;;;;;;4172422;28;20044;-63
2021/12/11 08:46:33;;;;;;;65.25;28.92;;;4.50;99.90;;;;;;4169826;28;20040;-63
2021/12/11 08:48:35;;;;;;;57.83;28.05;;;4.50;99.90;;;;;;4162481;28;20100;-63
2021/12/11 08:50:37;;;;;;;58.20;27.55;;;4.50;99.90;;;;;;4167291;28;20045;-63
2021/12/11 08:52:42;;;;;;;56.03;27.05;;;4.60;99.90;;;;;;4170833;28;20080;-63
2021/12/11 08:54:43;;;;;;;66.35;29.85;;;4.60;99.90;;;;;;4167699;28;20041;-63
2021/12/11 08:56:44;;;;;;;68.10;30.20;;;4.60;99.90;;;;;;4167394;28;20036;-63
2021/12/11 08:58:46;;;;;;;65.78;30.90;;;4.60;99.90;;;;;;4168395;28;20030;-63
2021/12/11 09:01:14;;;;;;;68.07;31.73;;;4.50;99.90;;;;;;4170006;28;20059;-63
2021/12/11 09:03:31;;;;;;;65.10;29.88;;;4.50;99.90;;;;;;4150290;28;20065;-63
2021/12/11 09:05:51;;;;;;;65.82;29.55;;;4.50;99.90;;;;;;4153594;28;20088;-63
2021/12/11 09:08:15;;;;;;;75.35;30.73;;;4.50;99.90;;;;;;4169709;28;20083;-63
2021/12/11 09:10:21;;;;;;;64.45;28.92;;;4.60;99.90;;;;;;4167075;28;20029;-63
2021/12/11 09:12:27;;;;;;;66.85;29.50;;;4.60;99.90;;;;;;4167900;28;20032;-63
2021/12/11 09:14:48;;;;;;;64.07;29.83;;;4.60;99.90;;;;;;4168263;28;20030;-63
2021/12/11 09:17:00;;;;;;;63.67;28.85;;;4.60;99.90;;;;;;4169520;28;20025;-63
2021/12/11 09:19:05;;;;;;;67.35;29.77;;;4.50;99.90;;;;;;4170955;28;20036;-63
2021/12/11 09:21:23;;;;;;;69.78;31.63;;;4.60;99.90;;;;;;4170089;28;20033;-63
2021/12/11 09:23:27;;;;;;;66.80;29.83;;;4.60;99.90;;;;;;4171180;28;20088;-63
2021/12/11 09:25:41;;;;;;;75.63;32.63;;;4.60;99.90;;;;;;4169488;28;20025;-63
2021/12/11 09:28:10;;;;;;;62.90;28.85;;;4.50;99.90;;;;;;4162899;28;20033;-63
2021/12/11 09:30:41;;;;;;;69.38;30.10;;;4.50;99.90;;;;;;4165574;28;20041;-64
2021/12/11 09:32:58;;;;;;;64.80;28.50;;;4.50;99.90;;;;;;4169399;28;20430;-63
2021/12/11 09:35:08;;;;;;;65.00;29.55;;;4.60;99.90;;;;;;4162764;28;20025;-63
2021/12/11 09:37:09;;;;;;;68.68;30.02;;;4.50;99.90;;;;;;4166935;28;20036;-63
2021/12/11 09:39:18;;;;;;;63.13;29.25;;;4.60;99.90;;;;;;4170067;28;20473;-63
2021/12/11 09:41:22;;;;;;;66.38;30.83;;;4.60;99.90;;;;;;4166748;28;20039;-63
2021/12/11 09:43:46;;;;;;;65.65;30.10;;;4.60;99.90;;;;;;4169901;28;20025;-63
2021/12/11 09:45:47;;;;;;;64.72;31.00;;;4.60;99.90;;;;;;4170125;28;20037;-63
2021/12/11 09:47:53;;;;;;;61.17;28.35;;;4.60;99.90;;;;;;4164053;28;20117;-63
2021/12/11 09:49:59;;;;;;;60.70;28.10;;;4.60;99.90;;;;;;4165488;28;20037;-63
2021/12/11 09:52:15;;;;;;;59.05;28.40;;;4.60;99.90;;;;;;4166352;28;20030;-63
2021/12/11 09:54:23;;;;;;;59.45;26.88;;;4.60;99.90;;;;;;4174303;28;20434;-63
2021/12/11 09:56:33;;;;;;;55.25;26.90;;;4.70;99.90;;;;;;4163755;28;20035;-63
2021/12/11 09:58:36;;;;;;;48.95;24.08;;;4.70;99.90;;;;;;4167126;28;20115;-63
2021/12/11 10:00:43;;;;;;;54.47;24.92;;;4.70;99.90;;;;;;4162413;28;20041;-64
2021/12/11 10:02:44;;;;;;;54.50;25.60;;;4.70;99.90;;;;;;4167222;28;20412;-63
2021/12/11 10:05:03;;;;;;;56.70;26.83;;;4.80;99.90;;;;;;4169081;28;20041;-63
2021/12/11 10:09:24;;;;;;;51.33;24.95;;;4.80;99.90;;;;;;4155964;28;20112;-63
2021/12/11 10:11:30;;;;;;;60.45;28.33;;;4.80;99.90;;;;;;4165935;28;20151;-63
2021/12/11 10:13:33;;;;;;;52.00;24.48;;;4.80;99.90;;;;;;4166520;28;20028;-63
2021/12/11 10:15:34;;;;;;;;;;;4.90;99.90;;;;;;4166282;28;20038;-63
2021/12/11 10:17:40;;;;;;;53.65;23.38;;;4.90;99.90;;;;;;4166492;28;20279;-63
2021/12/11 10:19:43;;;;;;;61.83;28.35;;;4.90;99.90;;;;;;4169810;28;20108;-63
2021/12/11 10:21:52;;;;;;;57.60;27.33;;;4.90;99.90;;;;;;4163024;28;20071;-63
2021/12/11 10:23:58;;;;;;;48.08;23.50;;;5.00;99.90;;;;;;4166589;28;20037;-63
2021/12/11 10:26:02;;;;;;;47.53;23.25;;;5.00;99.90;;;;;;4166359;28;20105;-63
2021/12/11 10:28:07;;;;;;;47.17;22.48;;;5.00;99.90;;;;;;4166805;28;20034;-63
2021/12/11 10:30:13;;;;;;;50.38;24.00;;;5.00;99.90;;;;;;4162801;28;20033;-64
2021/12/11 10:32:22;;;;;;;52.28;24.75;;;5.10;99.90;;;;;;4169063;28;20040;-63
2021/12/11 10:34:26;;;;;;;48.83;24.10;;;5.10;99.90;;;;;;4161034;28;20044;-63
2021/12/11 10:36:30;;;;;;;49.03;24.10;;;5.10;99.90;;;;;;4168409;28;20049;-63
2021/12/11 10:38:31;;;;;;;48.78;22.85;;;5.20;99.90;;;;;;4166172;28;20064;-63
2021/12/11 10:40:40;;;;;;;53.22;25.35;;;5.20;99.90;;;;;;4168602;28;20395;-63
2021/12/11 10:42:42;;;;;;;52.15;24.88;;;5.20;99.90;;;;;;4163428;28;20045;-63
2021/12/11 10:44:47;;;;;;;51.72;25.55;;;5.20;99.90;;;;;;4166502;28;20040;-63
2021/12/11 10:47:10;;;;;;;51.50;25.48;;;5.20;99.90;;;;;;4167683;28;20117;-63
2021/12/11 10:49:13;;;;;;;62.15;28.98;;;5.20;99.90;;;;;;4169173;28;20041;-63
2021/12/11 10:51:19;;;;;;;54.67;27.77;;;5.20;99.90;;;;;;4168979;28;20057;-63
2021/12/11 10:53:22;;;;;;;52.67;26.92;;;5.20;99.90;;;;;;4166386;28;20029;-63
2021/12/11 10:55:28;;;;;;;61.97;28.70;;;5.30;99.90;;;;;;4168002;28;20040;-63
2021/12/11 10:57:29;;;;;;;56.88;27.02;;;5.20;99.90;;;;;;4163050;28;20029;-63
2021/12/11 10:59:35;;;;;;;56.08;27.00;;;5.20;99.90;;;;;;4166290;28;20032;-63
2021/12/11 11:01:41;;;;;;;53.00;26.05;;;5.20;99.90;;;;;;4165750;28;20029;-63
2021/12/11 11:03:52;;;;;;;45.45;23.70;;;5.20;99.90;;;;;;4166051;28;20025;-63